Time;durP1;ratioP1;P1;durP2;ratioP2;P2;SDS_P1;SDS_P2;PMS_P1;PMS_P2;Temp;Humidity;BMP_temperature;BMP_pressure;BME280_temperature;BME280_humidity;BME280_pressure;Samples;Min_cycle;Max_cycle;Signal;HPM_P1;HPM_P2
2022/09/05 00:02:41;;;;;;;9.65;9.35;;;17.10;99.90;;;;;;5136673;27;20263;-79
2022/09/05 00:05:45;;;;;;;9.68;9.38;;;17.10;99.90;;;;;;5144328;27;20219;-79
2022/09/05 00:08:59;;;;;;;9.60;9.30;;;17.10;99.90;;;;;;5143798;27;20229;-79
2022/09/05 00:12:04;;;;;;;9.55;9.25;;;17.00;99.90;;;;;;5141737;27;20240;-79
2022/09/05 00:14:51;;;;;;;9.98;9.68;;;17.00;99.90;;;;;;5147615;27;20223;-78
2022/09/05 00:17:30;;;;;;;9.70;9.40;;;16.90;99.90;;;;;;5156943;27;20264;-79
2022/09/05 00:20:11;;;;;;;9.75;9.45;;;16.90;99.90;;;;;;5148516;27;20234;-79
2022/09/05 00:22:53;;;;;;;9.43;9.13;;;16.90;99.90;;;;;;5144623;27;20242;-80
2022/09/05 00:25:58;;;;;;;9.45;9.15;;;16.90;99.90;;;;;;5143048;27;20289;-80
2022/09/05 00:29:02;;;;;;;9.70;9.40;;;16.80;99.90;;;;;;5138502;27;20323;-80
2022/09/05 00:31:50;;;;;;;9.40;9.10;;;16.70;99.90;;;;;;5142894;27;20286;-80
2022/09/05 00:34:38;;;;;;;9.60;9.30;;;16.70;99.90;;;;;;5141982;27;20238;-78
2022/09/05 00:37:08;;;;;;;9.50;9.20;;;16.70;99.90;;;;;;5141653;27;20271;-79
2022/09/05 00:39:40;;;;;;;9.70;9.40;;;16.60;99.90;;;;;;5142345;27;20212;-79
2022/09/05 00:42:15;;;;;;;9.57;9.27;;;16.60;99.90;;;;;;5142215;27;20220;-79
2022/09/05 00:44:54;;;;;;;9.70;9.40;;;16.60;99.90;;;;;;5141695;27;20235;-78
2022/09/05 00:47:33;;;;;;;9.82;9.52;;;16.60;99.90;;;;;;5141921;27;20235;-79
2022/09/05 00:50:11;;;;;;;10.00;9.70;;;16.60;99.90;;;;;;5141801;27;20231;-79
2022/09/05 00:52:49;;;;;;;9.80;9.50;;;16.50;99.90;;;;;;5141704;27;20305;-79
2022/09/05 00:55:26;;;;;;;9.85;9.55;;;16.50;99.90;;;;;;5141885;27;20294;-79
2022/09/05 00:58:14;;;;;;;9.82;9.52;;;16.50;99.90;;;;;;5141519;27;20292;-79
2022/09/05 01:00:53;;;;;;;9.65;9.35;;;16.40;99.90;;;;;;5142397;27;20236;-79
2022/09/05 01:03:47;;;;;;;9.65;9.35;;;16.40;99.90;;;;;;5142318;27;20228;-80
2022/09/05 01:06:27;;;;;;;9.57;9.27;;;16.40;99.90;;;;;;5141702;27;20220;-79
2022/09/05 01:09:23;;;;;;;9.80;9.50;;;16.40;99.90;;;;;;5142225;27;20231;-78
2022/09/05 01:12:09;;;;;;;9.70;9.40;;;16.40;99.90;;;;;;5141878;27;20238;-79
2022/09/05 01:18:28;;;;;;;9.80;9.50;;;16.40;99.90;;;;;;5140326;27;20283;-79
2022/09/05 01:21:25;;;;;;;9.52;9.23;;;16.40;99.90;;;;;;5141286;27;20261;-79
2022/09/05 01:24:20;;;;;;;9.52;9.23;;;16.30;99.90;;;;;;5141480;27;20223;-79
2022/09/05 01:27:33;;;;;;;9.80;9.50;;;16.30;99.90;;;;;;5141174;27;21093;-79
2022/09/05 01:30:09;;;;;;;9.50;9.20;;;16.30;99.90;;;;;;5141849;27;20231;-79
2022/09/05 01:32:51;;;;;;;9.60;9.30;;;16.20;99.90;;;;;;5143384;27;20220;-79
2022/09/05 01:35:58;;;;;;;9.70;9.40;;;16.20;99.90;;;;;;5144657;27;20238;-79
2022/09/05 01:38:40;;;;;;;9.75;9.45;;;16.20;99.90;;;;;;5041580;28;20231;-79
2022/09/05 01:41:22;;;;;;;9.77;9.48;;;16.20;99.90;;;;;;5040640;28;20270;-79
2022/09/05 01:44:23;;;;;;;9.95;9.65;;;16.10;99.90;;;;;;5113615;27;20311;-78
2022/09/05 01:47:10;;;;;;;9.60;9.30;;;16.10;99.90;;;;;;5144687;27;20239;-79
2022/09/05 01:49:56;;;;;;;9.90;9.60;;;16.10;99.90;;;;;;5149927;27;20292;-79
2022/09/05 01:52:43;;;;;;;9.60;9.30;;;16.10;99.90;;;;;;5151602;27;20216;-79
2022/09/05 01:55:30;;;;;;;9.40;9.10;;;16.00;99.90;;;;;;5146944;27;20288;-80
2022/09/05 01:58:12;;;;;;;9.40;9.10;;;16.00;99.90;;;;;;5146448;27;20230;-80
2022/09/05 02:00:57;;;;;;;9.63;9.32;;;16.00;99.90;;;;;;5146022;27;20235;-79
2022/09/05 02:03:44;;;;;;;9.48;9.18;;;16.00;99.90;;;;;;5144770;27;20328;-80
2022/09/05 02:06:39;;;;;;;9.57;9.27;;;15.90;99.90;;;;;;5144183;27;20232;-80
2022/09/05 02:09:35;;;;;;;9.40;9.10;;;15.90;99.90;;;;;;5144736;27;20212;-79
2022/09/05 02:12:05;;;;;;;9.43;9.13;;;15.80;99.90;;;;;;5144850;27;20236;-79
2022/09/05 02:14:42;;;;;;;9.70;9.40;;;15.80;99.90;;;;;;5144479;27;20228;-80
2022/09/05 02:17:23;;;;;;;9.70;9.40;;;15.80;99.90;;;;;;5144831;27;20239;-79
2022/09/05 02:20:00;;;;;;;9.80;9.50;;;15.80;99.90;;;;;;5144838;27;20259;-80
2022/09/05 02:22:45;;;;;;;9.77;9.48;;;15.70;99.90;;;;;;5154889;27;20228;-79
2022/09/05 02:25:24;;;;;;;9.50;9.20;;;15.70;99.90;;;;;;5158629;27;20287;-78
2022/09/05 02:28:02;;;;;;;9.80;9.50;;;15.60;99.90;;;;;;5158448;27;20341;-79
2022/09/05 02:30:41;;;;;;;9.70;9.40;;;15.60;99.90;;;;;;5150361;27;20228;-79
2022/09/05 02:33:21;;;;;;;9.50;9.20;;;15.60;99.90;;;;;;5146202;27;20242;-79
2022/09/05 02:35:59;;;;;;;9.40;9.10;;;15.60;99.90;;;;;;5145777;27;20228;-79
2022/09/05 02:38:38;;;;;;;9.70;9.40;;;15.60;99.90;;;;;;5146038;27;20254;-79
2022/09/05 02:41:24;;;;;;;9.88;9.57;;;15.50;99.90;;;;;;5145071;27;20303;-80
2022/09/05 02:44:02;;;;;;;9.40;9.10;;;15.50;99.90;;;;;;5144764;27;20316;-79
2022/09/05 02:46:43;;;;;;;9.60;9.30;;;15.50;99.90;;;;;;5143875;27;20235;-79
2022/09/05 02:49:18;;;;;;;9.60;9.30;;;15.50;99.90;;;;;;5140569;27;20239;-79
2022/09/05 02:51:59;;;;;;;9.80;9.50;;;15.50;99.90;;;;;;5132540;27;20704;-79
2022/09/05 02:54:35;;;;;;;9.60;9.30;;;15.40;99.90;;;;;;5135560;27;20236;-79
2022/09/05 02:57:32;;;;;;;9.75;9.45;;;15.40;99.90;;;;;;5143017;27;20231;-77
2022/09/05 03:00:18;;;;;;;9.75;9.45;;;15.40;99.90;;;;;;5123617;28;20221;-79
2022/09/05 03:03:15;;;;;;;9.70;9.40;;;15.30;99.90;;;;;;5123107;28;20288;-79
2022/09/05 03:05:52;;;;;;;9.63;9.32;;;15.30;99.90;;;;;;5137627;27;20327;-79
2022/09/05 03:08:57;;;;;;;9.60;9.30;;;15.20;99.90;;;;;;5125750;27;20312;-80
2022/09/05 03:12:36;;;;;;;9.45;9.15;;;15.20;99.90;;;;;;5118059;28;20236;-81
2022/09/05 03:16:08;;;;;;;9.40;9.10;;;15.20;99.90;;;;;;5047777;28;20279;-80
2022/09/05 03:19:39;;;;;;;9.20;8.90;;;15.10;99.90;;;;;;5087105;28;20284;-80
2022/09/05 03:23:02;;;;;;;9.40;9.10;;;15.10;99.90;;;;;;5096677;28;20301;-80
2022/09/05 03:26:18;;;;;;;9.27;8.98;;;15.00;99.90;;;;;;5122139;28;20327;-78
2022/09/05 03:29:32;;;;;;;9.27;8.98;;;15.00;99.90;;;;;;5122941;28;20209;-80
2022/09/05 03:32:44;;;;;;;9.70;9.40;;;15.00;99.90;;;;;;5140016;27;20228;-80
2022/09/05 03:36:15;;;;;;;9.52;9.23;;;14.90;99.90;;;;;;5143258;27;20277;-80
2022/09/05 03:39:48;;;;;;;9.60;9.30;;;14.90;99.90;;;;;;5143589;27;20255;-80
2022/09/05 03:42:48;;;;;;;9.40;9.10;;;14.80;99.90;;;;;;5140225;27;20227;-80
2022/09/05 03:45:44;;;;;;;9.30;9.00;;;14.80;99.90;;;;;;5143358;27;20232;-80
2022/09/05 03:48:47;;;;;;;9.40;9.10;;;14.70;99.90;;;;;;5143557;27;20283;-81
2022/09/05 03:51:43;;;;;;;9.18;8.88;;;14.70;99.90;;;;;;5143465;27;20725;-80
2022/09/05 03:54:42;;;;;;;9.60;9.30;;;14.60;99.90;;;;;;5143712;27;20236;-80
2022/09/05 03:57:46;;;;;;;9.55;9.25;;;14.60;99.90;;;;;;5152356;27;20280;-80
2022/09/05 04:00:22;;;;;;;9.60;9.30;;;14.50;99.90;;;;;;5150978;27;20242;-80
2022/09/05 04:03:09;;;;;;;9.60;9.30;;;14.50;99.90;;;;;;5154492;27;20255;-80
2022/09/05 04:05:41;;;;;;;9.60;9.30;;;14.50;99.90;;;;;;5152047;27;20272;-80
2022/09/05 04:08:14;;;;;;;9.40;9.10;;;14.50;99.90;;;;;;5146884;27;20239;-80
2022/09/05 04:10:56;;;;;;;9.60;9.30;;;14.50;99.90;;;;;;5146353;27;20236;-81
2022/09/05 04:16:20;;;;;;;10.20;9.90;;;14.50;99.90;;;;;;5137818;27;20243;-80
2022/09/05 04:21:43;;;;;;;9.93;9.63;;;14.50;99.90;;;;;;5121239;28;20252;-81
2022/09/05 04:27:37;;;;;;;10.45;10.15;;;14.50;99.90;;;;;;5121395;28;20227;-80
2022/09/05 04:30:26;;;;;;;10.35;10.05;;;14.50;99.90;;;;;;5122310;28;20228;-81
2022/09/05 04:33:02;;;;;;;10.60;10.30;;;14.50;99.90;;;;;;5122171;28;21080;-81
2022/09/05 04:35:41;;;;;;;10.50;10.20;;;14.50;99.90;;;;;;5121566;28;20235;-80
2022/09/05 04:38:14;;;;;;;10.80;10.50;;;14.40;99.90;;;;;;5121450;28;20227;-80
2022/09/05 04:40:50;;;;;;;10.40;10.10;;;14.40;99.90;;;;;;5121578;28;20235;-80
2022/09/05 04:43:46;;;;;;;10.45;10.15;;;14.40;99.90;;;;;;5121772;28;20303;-80
2022/09/05 04:46:24;;;;;;;10.17;9.87;;;14.40;99.90;;;;;;5122599;28;20255;-80
2022/09/05 04:49:02;;;;;;;10.15;9.85;;;14.40;99.90;;;;;;5121943;28;20216;-80
2022/09/05 04:52:24;;;;;;;9.88;9.57;;;14.40;99.90;;;;;;5121581;28;20244;-80
2022/09/05 04:54:57;;;;;;;10.00;9.70;;;14.40;99.90;;;;;;5121178;28;20300;-81
2022/09/05 04:57:32;;;;;;;9.90;9.60;;;14.40;99.90;;;;;;5122038;28;20260;-80
2022/09/05 05:00:11;;;;;;;10.00;9.70;;;14.40;99.90;;;;;;5121305;28;20224;-80
2022/09/05 05:02:43;;;;;;;10.30;10.00;;;14.40;99.90;;;;;;5132180;27;20314;-81
2022/09/05 05:05:19;;;;;;;9.77;9.47;;;14.40;99.90;;;;;;5141394;27;20228;-80
2022/09/05 05:07:56;;;;;;;9.97;9.67;;;14.40;99.90;;;;;;5135312;27;20220;-80
2022/09/05 05:10:32;;;;;;;10.30;10.00;;;14.40;99.90;;;;;;5166923;22;20216;-79
2022/09/05 05:13:07;;;;;;;10.18;9.88;;;14.40;99.90;;;;;;5141667;27;20295;-76
2022/09/05 05:15:47;;;;;;;9.90;9.60;;;14.40;99.90;;;;;;5144415;27;20228;-76
2022/09/05 05:18:25;;;;;;;9.95;9.65;;;14.50;99.90;;;;;;5133442;27;20215;-78
2022/09/05 05:21:01;;;;;;;10.10;9.80;;;14.50;99.90;;;;;;5121027;28;20228;-76
2022/09/05 05:23:37;;;;;;;10.55;10.25;;;14.50;99.90;;;;;;5121911;28;20238;-77
2022/09/05 05:26:10;;;;;;;10.25;9.95;;;14.60;99.90;;;;;;5116012;28;20381;-78
2022/09/05 05:28:57;;;;;;;10.38;10.07;;;14.60;99.90;;;;;;5119199;28;20280;-78
2022/09/05 05:31:31;;;;;;;10.35;10.05;;;14.60;99.90;;;;;;5123057;28;20256;-76
2022/09/05 05:34:02;;;;;;;10.50;10.20;;;14.70;99.90;;;;;;5121703;28;20259;-78
2022/09/05 05:36:34;;;;;;;10.48;10.18;;;14.70;99.90;;;;;;5124130;28;20239;-77
2022/09/05 05:39:09;;;;;;;10.70;10.40;;;14.70;99.90;;;;;;5122721;28;20263;-77
2022/09/05 05:41:42;;;;;;;10.10;9.80;;;14.80;99.90;;;;;;5120828;28;20232;-77
2022/09/05 05:44:14;;;;;;;10.63;10.32;;;14.80;99.90;;;;;;5121480;28;20233;-78
2022/09/05 05:46:47;;;;;;;10.27;9.98;;;14.90;99.90;;;;;;5125326;28;20255;-79
2022/09/05 05:49:48;;;;;;;10.15;9.85;;;14.90;99.90;;;;;;5124938;28;20228;-79
2022/09/05 05:53:04;;;;;;;10.30;10.00;;;15.00;99.90;;;;;;5126954;28;20251;-78
2022/09/05 05:56:00;;;;;;;10.30;10.00;;;15.10;99.90;;;;;;5126780;28;20296;-79
2022/09/05 05:59:06;;;;;;;10.82;10.52;;;15.30;99.90;;;;;;5126166;28;20240;-78
2022/09/05 06:02:33;;;;;;;10.55;10.25;;;15.30;99.90;;;;;;5122917;28;20280;-77
2022/09/05 06:05:47;;;;;;;10.70;10.40;;;15.50;99.90;;;;;;5122337;28;20231;-77
2022/09/05 06:08:58;;;;;;;10.73;10.43;;;15.60;99.90;;;;;;5121047;28;20301;-79
2022/09/05 06:12:30;;;;;;;10.68;10.38;;;15.70;99.90;;;;;;5102120;28;20245;-77
2022/09/05 06:15:55;;;;;;;10.30;10.00;;;15.80;99.90;;;;;;5055832;28;20237;-76
2022/09/05 06:18:56;;;;;;;10.43;10.13;;;15.90;99.90;;;;;;5100995;27;20229;-77
2022/09/05 06:22:02;;;;;;;10.40;10.10;;;16.00;99.90;;;;;;5123213;28;20212;-77
2022/09/05 06:25:20;;;;;;;10.27;9.98;;;16.20;99.90;;;;;;5136515;27;20236;-76
2022/09/05 06:28:02;;;;;;;10.20;9.90;;;16.30;99.90;;;;;;5140234;28;20292;-76
2022/09/05 06:30:39;;;;;;;10.27;9.98;;;16.50;99.90;;;;;;5110691;27;20224;-75
2022/09/05 06:33:27;;;;;;;10.00;9.70;;;16.70;99.90;;;;;;5120197;27;20240;-75
2022/09/05 06:36:18;;;;;;;10.10;9.80;;;16.80;99.90;;;;;;5100380;28;20275;-75
2022/09/05 06:39:02;;;;;;;10.20;9.90;;;17.00;99.90;;;;;;5100473;28;20202;-77
2022/09/05 06:41:44;;;;;;;10.45;10.15;;;17.10;99.90;;;;;;5100583;28;20218;-78
2022/09/05 06:44:39;;;;;;;10.30;10.00;;;17.20;99.90;;;;;;5099696;28;20218;-76
2022/09/05 06:47:11;;;;;;;10.57;10.27;;;17.30;99.90;;;;;;5099764;28;20241;-77
2022/09/05 06:50:06;;;;;;;10.60;10.30;;;17.40;99.90;;;;;;5100572;28;20265;-80
2022/09/05 06:53:24;;;;;;;10.38;10.07;;;17.50;99.90;;;;;;5100154;28;20194;-78
2022/09/05 06:56:08;;;;;;;10.20;9.90;;;17.60;99.90;;;;;;5090470;28;20280;-79
2022/09/05 06:59:46;;;;;;;10.50;10.20;;;17.60;99.90;;;;;;5093986;28;20294;-79
2022/09/05 07:02:24;;;;;;;10.30;10.00;;;17.70;99.90;;;;;;5094798;28;20226;-79
2022/09/05 07:05:11;;;;;;;10.50;10.20;;;17.80;99.90;;;;;;5097899;28;20202;-79
2022/09/05 07:07:49;;;;;;;10.60;10.30;;;18.00;99.90;;;;;;5098169;28;20237;-81
2022/09/05 07:10:27;;;;;;;10.60;10.30;;;18.10;99.90;;;;;;5124222;27;20285;-80
2022/09/05 07:13:14;;;;;;;10.50;10.20;;;18.20;99.90;;;;;;5127301;28;20264;-78
2022/09/05 07:15:53;;;;;;;10.50;10.20;;;18.30;99.90;;;;;;5098008;28;20244;-78
2022/09/05 07:18:31;;;;;;;10.57;10.27;;;18.40;99.90;;;;;;5126500;28;20249;-79
2022/09/05 07:21:10;;;;;;;10.20;9.90;;;18.60;99.90;;;;;;5141757;27;20228;-80
2022/09/05 07:23:55;;;;;;;10.30;10.00;;;18.70;99.90;;;;;;5133596;28;20232;-78
2022/09/05 07:26:25;;;;;;;10.27;9.98;;;18.90;99.90;;;;;;5107816;28;20261;-78
2022/09/05 07:29:00;;;;;;;10.30;10.00;;;19.10;99.90;;;;;;5111251;28;20293;-77
2022/09/05 07:31:30;;;;;;;10.40;10.10;;;19.30;99.90;;;;;;5107314;28;20259;-77
2022/09/05 07:34:11;;;;;;;10.10;9.80;;;19.40;99.90;;;;;;5113074;28;20222;-78
2022/09/05 07:36:43;;;;;;;10.57;10.27;;;19.50;99.90;;;;;;5113780;28;20352;-78
2022/09/05 07:39:18;;;;;;;10.60;10.30;;;19.70;99.90;;;;;;5111619;28;20248;-78
2022/09/05 07:41:52;;;;;;;10.88;10.57;;;19.80;99.90;;;;;;5116413;28;20240;-79
2022/09/05 07:44:27;;;;;;;10.50;10.20;;;19.90;99.90;;;;;;5114264;28;20228;-78
2022/09/05 07:47:05;;;;;;;10.50;10.20;;;20.10;99.90;;;;;;5119240;28;20215;-79
2022/09/05 07:49:35;;;;;;;10.70;10.40;;;20.20;99.90;;;;;;5117422;28;20305;-78
2022/09/05 07:52:12;;;;;;;10.57;10.27;;;20.30;99.90;;;;;;5133843;28;20282;-78
2022/09/05 07:54:40;;;;;;;10.50;10.20;;;20.40;99.90;;;;;;5131649;28;20251;-78
2022/09/05 07:57:11;;;;;;;10.45;10.15;;;20.40;99.90;;;;;;5131775;28;20224;-78
2022/09/05 07:59:41;;;;;;;10.50;10.20;;;20.40;99.90;;;;;;5132039;28;20252;-79
2022/09/05 08:02:12;;;;;;;10.40;10.10;;;20.40;99.90;;;;;;5132041;28;20255;-79
2022/09/05 08:04:41;;;;;;;10.50;10.20;;;20.50;99.90;;;;;;5123425;28;20382;-76
2022/09/05 08:07:14;;;;;;;10.35;10.05;;;20.60;99.90;;;;;;5121536;28;20232;-75
2022/09/05 08:09:47;;;;;;;10.60;10.30;;;20.70;99.90;;;;;;5119186;28;20312;-75
2022/09/05 08:12:19;;;;;;;10.75;10.45;;;20.70;99.90;;;;;;5103329;28;20315;-74
2022/09/05 08:15:02;;;;;;;10.80;10.50;;;20.80;99.90;;;;;;5112896;28;20304;-75
2022/09/05 08:17:29;;;;;;;10.68;10.38;;;21.00;99.90;;;;;;5103609;28;20224;-75
2022/09/05 08:20:24;;;;;;;10.50;10.20;;;21.10;99.90;;;;;;5118378;28;20257;-74
2022/09/05 08:23:02;;;;;;;10.00;9.70;;;21.20;99.90;;;;;;5109929;28;20304;-75
2022/09/05 08:25:33;;;;;;;10.00;9.70;;;21.40;99.90;;;;;;5102602;28;20235;-76
2022/09/05 08:28:10;;;;;;;9.82;9.52;;;21.40;99.90;;;;;;5095175;28;20247;-75
2022/09/05 08:30:47;;;;;;;9.90;9.60;;;21.50;99.90;;;;;;5097560;28;20241;-75
2022/09/05 08:33:20;;;;;;;10.40;10.10;;;21.70;99.90;;;;;;5118950;28;20296;-75
2022/09/05 08:35:53;;;;;;;10.20;9.90;;;21.90;99.90;;;;;;5122270;28;20233;-74
2022/09/05 08:38:20;;;;;;;10.35;10.05;;;22.20;99.90;;;;;;5119512;28;20225;-74
2022/09/05 08:40:58;;;;;;;10.43;10.13;;;22.40;99.90;;;;;;5117193;27;20237;-75
2022/09/05 08:43:33;;;;;;;10.32;10.02;;;22.60;99.90;;;;;;5117787;28;20236;-75
2022/09/05 08:46:07;;;;;;;10.40;10.10;;;22.90;99.90;;;;;;5117150;28;20224;-74
2022/09/05 08:49:38;;;;;;;10.38;10.07;;;23.10;99.90;;;;;;5117689;28;20229;-74
2022/09/05 08:52:13;;;;;;;9.88;9.57;;;23.50;99.90;;;;;;5114473;28;20247;-75
2022/09/05 08:54:56;;;;;;;9.90;9.60;;;23.80;99.90;;;;;;5116970;28;20240;-75
2022/09/05 08:58:09;;;;;;;10.00;9.70;;;23.90;99.90;;;;;;5117150;28;20332;-74
2022/09/05 09:00:45;;;;;;;9.95;9.65;;;24.30;99.90;;;;;;5117243;28;20228;-75
2022/09/05 09:03:22;;;;;;;10.02;9.73;;;24.70;99.90;;;;;;5117792;27;20228;-75
2022/09/05 09:06:25;;;;;;;10.10;9.80;;;24.80;99.90;;;;;;5113128;28;20343;-75
2022/09/05 09:09:12;;;;;;;9.85;9.55;;;25.00;99.90;;;;;;5108632;28;20224;-75
2022/09/05 09:11:46;;;;;;;9.88;9.57;;;25.00;99.90;;;;;;5104359;28;20323;-75
2022/09/05 09:14:37;;;;;;;9.90;9.60;;;25.10;99.90;;;;;;5117612;28;20320;-77
2022/09/05 09:17:31;;;;;;;9.90;9.60;;;25.30;99.90;;;;;;5114556;28;20231;-77
2022/09/05 09:20:43;;;;;;;9.70;9.40;;;25.30;99.90;;;;;;5119197;28;20221;-78
2022/09/05 09:23:30;;;;;;;10.10;9.80;;;25.50;99.90;;;;;;5072788;28;20676;-77
2022/09/05 09:26:12;;;;;;;9.77;9.48;;;25.60;99.90;;;;;;5117307;28;20778;-80
2022/09/05 09:28:50;;;;;;;10.10;9.80;;;25.90;99.90;;;;;;5118568;28;20224;-78
2022/09/05 09:31:43;;;;;;;10.20;9.90;;;25.90;99.90;;;;;;5118077;28;20227;-78
2022/09/05 09:34:57;;;;;;;10.48;10.18;;;25.90;99.90;;;;;;5118534;28;20316;-77
2022/09/05 09:38:18;;;;;;;10.60;10.30;;;26.20;99.90;;;;;;5113652;28;20240;-78
2022/09/05 09:41:32;;;;;;;10.60;10.30;;;26.40;99.90;;;;;;5117585;28;20236;-78
2022/09/05 09:44:56;;;;;;;10.48;10.18;;;26.80;99.90;;;;;;5076391;28;20234;-78
2022/09/05 09:48:00;;;;;;;10.60;10.30;;;27.10;99.90;;;;;;5076196;28;20235;-78
2022/09/05 09:50:59;;;;;;;10.70;10.40;;;27.10;99.90;;;;;;5107760;28;20240;-78
2022/09/05 09:54:12;;;;;;;10.77;10.48;;;27.00;99.90;;;;;;5077685;28;20230;-78
2022/09/05 09:57:33;;;;;;;10.60;10.30;;;27.10;99.90;;;;;;5036848;28;20226;-77
2022/09/05 10:00:16;;;;;;;10.63;10.32;;;26.90;99.90;;;;;;5067333;28;20232;-78
2022/09/05 10:03:07;;;;;;;10.57;10.27;;;27.00;99.90;;;;;;5079823;28;20233;-77
2022/09/05 10:05:59;;;;;;;10.80;10.50;;;27.00;99.90;;;;;;5079245;28;20329;-77
2022/09/05 10:08:57;;;;;;;10.50;10.20;;;27.30;99.90;;;;;;5079768;28;20226;-78
2022/09/05 10:11:42;;;;;;;10.80;10.50;;;27.50;99.90;;;;;;5078959;28;20246;-78
2022/09/05 10:15:06;;;;;;;10.60;10.30;;;27.70;99.90;;;;;;5079717;28;20222;-78
2022/09/05 10:18:18;;;;;;;10.68;10.38;;;28.00;99.90;;;;;;5080009;28;20234;-77
2022/09/05 10:21:16;;;;;;;10.52;10.23;;;28.20;99.90;;;;;;5078813;28;20237;-78
2022/09/05 10:24:32;;;;;;;10.70;10.40;;;28.50;99.90;;;;;;5079469;28;20214;-78
2022/09/05 10:27:32;;;;;;;10.70;10.40;;;28.80;99.90;;;;;;5081417;28;20234;-78
2022/09/05 10:30:20;;;;;;;10.70;10.40;;;28.70;99.90;;;;;;5100443;28;20328;-78
2022/09/05 10:33:26;;;;;;;10.80;10.50;;;28.70;99.90;;;;;;5100636;28;20229;-78
2022/09/05 10:36:03;;;;;;;10.55;10.25;;;28.60;99.90;;;;;;5099543;28;20237;-78
2022/09/05 10:38:39;;;;;;;11.00;10.70;;;28.70;99.90;;;;;;5100002;28;20238;-78
2022/09/05 10:41:13;;;;;;;10.95;10.65;;;28.60;99.90;;;;;;5100025;28;20244;-79
2022/09/05 10:43:49;;;;;;;10.98;10.68;;;28.70;99.90;;;;;;5099714;28;20271;-78
2022/09/05 10:46:31;;;;;;;10.90;10.60;;;29.00;99.90;;;;;;5100063;28;20253;-78
2022/09/05 10:49:06;;;;;;;10.75;10.45;;;28.90;99.90;;;;;;5099874;28;20236;-78
2022/09/05 10:51:45;;;;;;;11.10;10.80;;;29.00;99.90;;;;;;5099537;28;20233;-78
2022/09/05 10:54:32;;;;;;;11.15;10.85;;;29.20;99.90;;;;;;5100454;28;20233;-79
2022/09/05 10:57:12;;;;;;;11.07;10.77;;;29.40;99.90;;;;;;5099242;28;20229;-77
2022/09/05 11:00:05;;;;;;;11.35;11.05;;;29.60;99.90;;;;;;5100594;28;20278;-78
2022/09/05 11:02:38;;;;;;;11.30;11.00;;;29.90;99.90;;;;;;5099727;28;20223;-79
2022/09/05 11:05:21;;;;;;;11.27;10.98;;;30.00;99.90;;;;;;5098667;28;20225;-78
2022/09/05 11:08:01;;;;;;;11.15;10.85;;;30.20;99.90;;;;;;5105565;28;20282;-79
2022/09/05 11:10:39;;;;;;;11.45;11.15;;;30.30;99.90;;;;;;5106148;28;20237;-79
2022/09/05 11:13:26;;;;;;;11.45;11.15;;;30.50;99.90;;;;;;5101976;28;20226;-79
2022/09/05 11:21:02;;;;;;;11.63;11.32;;;30.40;99.90;;;;;;5020953;28;20223;-85
2022/09/05 11:28:06;;;;;;;11.35;11.05;;;30.90;99.90;;;;;;5004708;28;20235;-85
2022/09/05 11:30:43;;;;;;;11.30;11.00;;;31.00;99.90;;;;;;5080269;28;20354;-79
2022/09/05 11:33:39;;;;;;;10.95;10.65;;;31.10;99.90;;;;;;5127040;28;20319;-79
2022/09/05 11:36:09;;;;;;;10.60;10.30;;;31.10;99.90;;;;;;5106905;28;20256;-81
2022/09/05 11:39:05;;;;;;;11.18;10.88;;;31.30;99.90;;;;;;5126453;28;20232;-81
2022/09/05 11:42:27;;;;;;;11.27;10.98;;;31.70;99.90;;;;;;5161125;27;20231;-82
2022/09/05 11:45:21;;;;;;;11.35;11.05;;;32.30;99.90;;;;;;5097687;27;20278;-82
2022/09/05 11:48:35;;;;;;;11.50;11.20;;;32.20;99.90;;;;;;5123966;27;20240;-81
2022/09/05 11:51:29;;;;;;;11.10;10.80;;;31.90;99.90;;;;;;5093652;28;20233;-79
2022/09/05 11:54:26;;;;;;;11.00;10.70;;;31.40;99.90;;;;;;5127754;28;20213;-82
2022/09/05 12:09:14;;;;;;;10.90;10.60;;;33.10;99.90;;;;;;5098666;27;20236;-89
2022/09/05 12:12:12;;;;;;;11.10;10.80;;;33.20;99.90;;;;;;5080880;28;20225;-86
2022/09/05 12:15:19;;;;;;;11.00;10.70;;;32.90;99.90;;;;;;5099906;27;20224;-88
2022/09/05 12:25:32;;;;;;;10.43;10.13;;;33.00;99.90;;;;;;5119887;28;20217;-85
2022/09/05 12:31:51;;;;;;;10.68;10.38;;;33.60;99.90;;;;;;5143295;27;20223;-84
2022/09/05 12:34:56;;;;;;;10.80;10.50;;;33.60;99.90;;;;;;5130491;28;20353;-82
2022/09/05 12:37:50;;;;;;;10.63;10.32;;;33.80;99.90;;;;;;5127363;28;20236;-82
2022/09/05 12:40:32;;;;;;;10.80;10.50;;;34.20;99.90;;;;;;5126165;28;20209;-82
2022/09/05 12:43:47;;;;;;;10.88;10.57;;;34.50;99.90;;;;;;5125403;28;20228;-83
2022/09/05 12:49:34;;;;;;;10.70;10.40;;;34.70;99.90;;;;;;5127680;27;20255;-83
2022/09/05 12:56:04;;;;;;;11.80;11.40;;;33.90;99.90;;;;;;5150905;27;20223;-82
2022/09/05 12:58:43;;;;;;;11.70;11.30;;;33.30;99.90;;;;;;5146402;27;20258;-81
2022/09/05 13:05:18;;;;;;;11.90;11.50;;;33.80;99.90;;;;;;5112118;27;20290;-82
2022/09/05 13:23:27;;;;;;;11.68;11.27;;;34.60;99.90;;;;;;5123651;28;20290;-81
2022/09/05 13:26:06;;;;;;;11.70;11.30;;;34.20;99.90;;;;;;5123857;28;20284;-82
2022/09/05 13:28:51;;;;;;;11.77;11.38;;;33.80;99.90;;;;;;5126871;27;20225;-82
2022/09/05 13:32:08;;;;;;;11.50;11.20;;;33.80;99.90;;;;;;5127240;27;20224;-81
2022/09/05 13:38:12;;;;;;;11.80;11.40;;;34.30;99.90;;;;;;5090466;27;20237;-82
2022/09/05 13:49:58;;;;;;;11.93;11.52;;;35.10;99.90;;;;;;5151105;27;20215;-81
2022/09/05 13:53:10;;;;;;;12.00;11.60;;;34.90;99.90;;;;;;5153336;27;20235;-81
2022/09/05 13:55:51;;;;;;;11.38;11.07;;;34.40;99.90;;;;;;5143539;27;20228;-81
2022/09/05 14:02:07;;;;;;;11.40;11.10;;;34.60;99.90;;;;;;5136206;27;20243;-81
2022/09/05 14:05:47;;;;;;;11.55;11.25;;;34.40;99.90;;;;;;5120778;28;20275;-83
2022/09/05 14:16:03;;;;;;;11.00;10.70;;;35.20;99.90;;;;;;5061765;28;20229;-83
2022/09/05 14:43:01;;;;;;;12.00;11.60;;;36.30;99.90;;;;;;5231602;27;20342;-84
2022/09/05 14:46:43;;;;;;;;;;;;;;;;;;;;;
2022/09/05 14:50:22;;;;;;;11.73;11.32;;;37.60;99.90;;;;;;5140188;27;20231;-84
2022/09/05 15:00:28;;;;;;;11.20;10.90;;;36.80;99.90;;;;;;5157231;27;20236;-86
2022/09/05 15:03:49;;;;;;;10.95;10.65;;;35.90;99.90;;;;;;5157219;27;20229;-87
2022/09/05 15:30:38;;;;;;;11.38;11.07;;;35.40;99.90;;;;;;5033321;28;20236;-84
2022/09/05 15:40:18;;;;;;;11.10;10.80;;;32.50;99.90;;;;;;5030520;28;20285;-82
2022/09/05 16:08:25;;;;;;;11.15;10.85;;;30.30;99.90;;;;;;5009497;28;20209;-81
2022/09/05 16:22:39;;;;;;;11.13;10.82;;;29.60;99.90;;;;;;4964286;28;20310;-81
2022/09/05 16:31:53;;;;;;;11.10;10.80;;;29.00;99.90;;;;;;4975011;28;20244;-84
2022/09/05 16:51:51;;;;;;;10.68;10.38;;;28.90;99.90;;;;;;4997623;28;20209;-84
2022/09/05 16:54:29;;;;;;;10.70;10.40;;;29.20;99.90;;;;;;5021891;28;20236;-84
2022/09/05 16:57:05;;;;;;;10.90;10.60;;;29.50;99.90;;;;;;5023168;28;20239;-82
2022/09/05 16:59:46;;;;;;;10.70;10.40;;;29.80;99.90;;;;;;5014853;28;20259;-87
2022/09/05 17:02:49;;;;;;;10.80;10.50;;;30.00;99.90;;;;;;5020732;28;20220;-86
2022/09/05 17:16:09;;;;;;;10.50;10.20;;;30.10;99.90;;;;;;4842116;29;20238;-83
2022/09/05 17:19:06;;;;;;;10.00;9.70;;;29.90;99.90;;;;;;4949639;28;20234;-85
2022/09/05 17:22:11;;;;;;;9.93;9.63;;;29.80;99.90;;;;;;4945164;28;20239;-84
2022/09/05 17:24:58;;;;;;;9.75;9.45;;;29.70;99.90;;;;;;5022651;28;20220;-85
2022/09/05 17:46:04;;;;;;;10.25;9.95;;;28.60;99.90;;;;;;4864273;29;20221;-84
2022/09/05 18:00:24;;;;;;;10.30;10.00;;;27.50;99.90;;;;;;5018698;28;20261;-84
2022/09/05 18:13:59;;;;;;;10.20;9.90;;;26.70;99.90;;;;;;4980899;28;20303;-85
2022/09/05 18:20:02;;;;;;;8.85;8.65;;;26.40;99.90;;;;;;5020647;28;20331;-83
2022/09/05 18:29:17;;;;;;;;;;;;;;;;;;;;;
2022/09/05 18:32:22;;;;;;;9.40;9.10;;;26.00;99.90;;;;;;5022069;28;20267;-83
2022/09/05 18:38:21;;;;;;;9.38;9.07;;;25.80;99.90;;;;;;5019455;28;20223;-84
2022/09/05 18:41:18;;;;;;;9.10;8.90;;;25.60;99.90;;;;;;5017581;28;20235;-84
2022/09/05 18:44:16;;;;;;;9.35;9.05;;;25.50;99.90;;;;;;5007172;28;20230;-84
2022/09/05 18:49:39;;;;;;;9.50;9.20;;;25.20;99.90;;;;;;5005669;28;20234;-84
2022/09/05 18:52:26;;;;;;;9.30;9.00;;;25.10;99.90;;;;;;5021275;28;20717;-84
2022/09/05 18:57:56;;;;;;;8.80;8.60;;;24.90;99.90;;;;;;5016345;28;20231;-84
2022/09/05 19:03:37;;;;;;;8.60;8.40;;;24.70;99.90;;;;;;5020994;28;20256;-83
2022/09/05 19:10:18;;;;;;;9.27;8.98;;;24.40;99.90;;;;;;5020901;28;20223;-84
2022/09/05 19:18:34;;;;;;;9.45;9.15;;;24.00;99.90;;;;;;5020272;28;20235;-83
2022/09/05 19:21:18;;;;;;;9.05;8.85;;;23.80;99.90;;;;;;5025452;28;20300;-84
2022/09/05 19:24:03;;;;;;;9.25;8.98;;;23.70;99.90;;;;;;5025101;28;20291;-84
2022/09/05 19:26:45;;;;;;;9.00;8.80;;;23.60;99.90;;;;;;5024098;28;20243;-83
2022/09/05 19:29:30;;;;;;;9.05;8.85;;;23.50;99.90;;;;;;5025125;28;20330;-83